Time;durP1;ratioP1;P1;durP2;ratioP2;P2;SDS_P1;SDS_P2;PMS_P1;PMS_P2;Temp;Humidity;BMP_temperature;BMP_pressure;BME280_temperature;BME280_humidity;BME280_pressure;Samples;Min_cycle;Max_cycle;Signal;HPM_P1;HPM_P2
2021/04/02 00:01:44;;;;;;;6.70;4.88;;;13.70;99.90;;;;;;4970277;28;20031;-75
2021/04/02 00:04:09;;;;;;;5.47;4.78;;;13.70;99.90;;;;;;4966711;28;20022;-75
2021/04/02 00:06:35;;;;;;;5.65;5.10;;;13.70;99.90;;;;;;4968831;28;20502;-75
2021/04/02 00:09:02;;;;;;;8.60;5.07;;;13.60;99.90;;;;;;4969862;28;20122;-75
2021/04/02 00:11:28;;;;;;;12.95;6.40;;;13.60;99.90;;;;;;4970272;28;20047;-75
2021/04/02 00:13:54;;;;;;;9.00;5.55;;;13.60;99.90;;;;;;4969074;28;20121;-75
2021/04/02 00:16:20;;;;;;;8.27;5.25;;;13.60;99.90;;;;;;4954459;28;20031;-75
2021/04/02 00:18:46;;;;;;;9.25;5.50;;;13.60;99.90;;;;;;4971529;28;20035;-75
2021/04/02 00:21:14;;;;;;;12.52;4.22;;;13.60;99.90;;;;;;4968217;28;20031;-76
2021/04/02 00:23:40;;;;;;;8.35;5.07;;;13.60;99.90;;;;;;4970805;28;20102;-75
2021/04/02 00:26:13;;;;;;;7.68;4.68;;;13.60;99.90;;;;;;4970056;28;20782;-75
2021/04/02 00:28:39;;;;;;;6.03;3.90;;;13.60;99.90;;;;;;4973043;28;20117;-75
2021/04/02 00:31:06;;;;;;;7.05;5.13;;;13.70;99.90;;;;;;4973542;28;20034;-75
2021/04/02 00:33:33;;;;;;;9.25;4.28;;;13.70;99.90;;;;;;4972507;28;20023;-75
2021/04/02 00:35:59;;;;;;;5.70;3.78;;;13.70;99.90;;;;;;4973116;28;20045;-75
2021/04/02 00:38:25;;;;;;;10.60;4.03;;;13.70;99.90;;;;;;4972661;28;20097;-74
2021/04/02 00:41:02;;;;;;;6.88;4.43;;;13.70;99.90;;;;;;4973695;28;20426;-74
2021/04/02 00:43:32;;;;;;;7.50;4.72;;;13.70;99.90;;;;;;4968205;28;20015;-75
2021/04/02 00:45:57;;;;;;;8.13;4.50;;;13.70;99.90;;;;;;4957404;28;20039;-75
2021/04/02 00:48:23;;;;;;;6.38;4.55;;;13.70;99.90;;;;;;4973186;28;20031;-75
2021/04/02 00:50:54;;;;;;;5.05;4.45;;;13.70;99.90;;;;;;4973741;28;20133;-75
2021/04/02 00:53:22;;;;;;;5.53;4.85;;;13.70;99.90;;;;;;4959654;28;20039;-75
2021/04/02 00:55:49;;;;;;;4.72;3.88;;;13.70;99.90;;;;;;4979652;28;20472;-75
2021/04/02 00:58:18;;;;;;;11.65;4.55;;;13.70;99.90;;;;;;4975068;28;20042;-75
2021/04/02 01:00:44;;;;;;;7.32;4.70;;;13.60;99.90;;;;;;4973917;28;20026;-75
2021/04/02 01:03:10;;;;;;;7.35;3.78;;;13.80;99.90;;;;;;4974285;28;20105;-75
2021/04/02 01:05:40;;;;;;;6.47;4.15;;;13.80;99.90;;;;;;4978546;28;20117;-74
2021/04/02 01:08:11;;;;;;;8.20;4.20;;;13.80;99.90;;;;;;4987750;28;20030;-74
2021/04/02 01:10:38;;;;;;;9.65;5.07;;;13.80;99.90;;;;;;4971986;28;20103;-75
2021/04/02 01:13:17;;;;;;;9.05;4.90;;;13.90;99.90;;;;;;4971072;28;20189;-75
2021/04/02 01:15:43;;;;;;;11.65;4.22;;;13.80;99.90;;;;;;4973868;28;20389;-76
2021/04/02 01:18:17;;;;;;;5.35;4.85;;;13.80;99.90;;;;;;4973875;28;20034;-75
2021/04/02 01:20:47;;;;;;;10.13;6.45;;;13.80;99.90;;;;;;4974671;28;20026;-75
2021/04/02 01:23:16;;;;;;;5.70;4.65;;;13.70;99.90;;;;;;4973280;28;20019;-75
2021/04/02 01:25:52;;;;;;;10.85;5.00;;;13.60;99.90;;;;;;4972491;28;20509;-75
2021/04/02 01:28:39;;;;;;;7.75;5.18;;;13.60;99.90;;;;;;4972521;28;20050;-76
2021/04/02 01:31:07;;;;;;;8.25;4.90;;;13.60;99.90;;;;;;4973387;28;20062;-76
2021/04/02 01:33:33;;;;;;;11.20;4.65;;;13.60;99.90;;;;;;4972251;28;20034;-76
2021/04/02 01:36:00;;;;;;;6.03;4.20;;;13.60;99.90;;;;;;4953630;28;20134;-75
2021/04/02 01:38:32;;;;;;;6.65;5.38;;;13.70;99.90;;;;;;4971304;28;20019;-76
2021/04/02 01:41:01;;;;;;;5.05;4.05;;;13.70;99.90;;;;;;4970295;28;20054;-75
2021/04/02 01:43:37;;;;;;;6.80;4.60;;;13.70;99.90;;;;;;4955851;28;20018;-75
2021/04/02 01:46:06;;;;;;;5.25;4.43;;;13.80;99.90;;;;;;4972118;28;20093;-75
2021/04/02 01:48:33;;;;;;;7.53;4.80;;;13.80;99.90;;;;;;4973412;28;20027;-75
2021/04/02 01:51:01;;;;;;;4.65;4.15;;;13.80;99.90;;;;;;4971691;28;20062;-75
2021/04/02 01:53:37;;;;;;;4.78;4.35;;;13.80;99.90;;;;;;4971500;28;20034;-75
2021/04/02 01:56:05;;;;;;;8.10;4.50;;;13.80;99.90;;;;;;4972270;28;20073;-75
2021/04/02 01:58:32;;;;;;;5.40;4.13;;;13.80;99.90;;;;;;4972081;28;20035;-75
2021/04/02 02:01:00;;;;;;;6.68;5.30;;;13.80;99.90;;;;;;4970909;28;20030;-75
2021/04/02 02:03:28;;;;;;;10.27;5.28;;;13.80;99.90;;;;;;4972655;28;20121;-76
2021/04/02 02:05:56;;;;;;;7.63;4.57;;;13.90;99.90;;;;;;4975229;28;20504;-74
2021/04/02 02:08:24;;;;;;;15.45;5.32;;;13.80;99.90;;;;;;4973498;28;20027;-77
2021/04/02 02:10:59;;;;;;;15.50;4.43;;;13.80;99.90;;;;;;4971548;28;20046;-75
2021/04/02 02:13:26;;;;;;;9.30;4.32;;;13.80;99.90;;;;;;4949297;28;20146;-74
2021/04/02 02:15:54;;;;;;;9.20;5.30;;;13.90;99.90;;;;;;4972085;28;20026;-74
2021/04/02 02:18:23;;;;;;;6.57;3.70;;;13.90;99.90;;;;;;4972210;28;20085;-75
2021/04/02 02:20:50;;;;;;;4.32;3.92;;;13.90;99.90;;;;;;4970615;28;20389;-75
2021/04/02 02:23:16;;;;;;;7.57;4.38;;;14.00;99.90;;;;;;4960107;28;20122;-75
2021/04/02 02:25:42;;;;;;;11.27;5.10;;;14.00;99.90;;;;;;4972164;28;20035;-75
2021/04/02 02:28:08;;;;;;;6.40;4.45;;;14.00;99.90;;;;;;4977335;28;20061;-76
2021/04/02 02:30:35;;;;;;;4.47;3.63;;;14.00;99.90;;;;;;4972856;28;20126;-76
2021/04/02 02:33:01;;;;;;;6.60;4.10;;;14.00;99.90;;;;;;4974548;28;20039;-76
2021/04/02 02:35:27;;;;;;;7.80;4.47;;;14.00;99.90;;;;;;4971848;28;20077;-76
2021/04/02 02:37:56;;;;;;;5.07;3.78;;;14.10;99.90;;;;;;4972481;28;20433;-76
2021/04/02 02:40:32;;;;;;;6.68;3.70;;;14.10;99.90;;;;;;4959155;28;20023;-76
2021/04/02 02:42:59;;;;;;;5.82;4.13;;;14.10;99.90;;;;;;4973605;28;20037;-76
2021/04/02 02:45:26;;;;;;;7.65;3.55;;;14.10;99.90;;;;;;4976731;28;20033;-76
2021/04/02 02:47:52;;;;;;;7.78;4.53;;;14.00;99.90;;;;;;4976076;28;20033;-76
2021/04/02 02:50:25;;;;;;;9.35;4.25;;;14.00;99.90;;;;;;4974460;28;20549;-76
2021/04/02 02:52:53;;;;;;;5.10;4.07;;;14.00;99.90;;;;;;4971758;28;20042;-77
2021/04/02 02:55:22;;;;;;;8.57;4.28;;;14.00;99.90;;;;;;4974966;28;20489;-76
2021/04/02 02:57:50;;;;;;;6.00;4.32;;;14.10;99.90;;;;;;4973106;28;20027;-76
2021/04/02 03:00:20;;;;;;;5.47;4.40;;;14.10;99.90;;;;;;4973744;28;20025;-76
2021/04/02 03:02:53;;;;;;;5.03;3.92;;;14.20;99.90;;;;;;4977441;28;20031;-76
2021/04/02 03:05:23;;;;;;;20.45;4.40;;;14.20;99.90;;;;;;4978158;28;20027;-76
2021/04/02 03:07:53;;;;;;;7.65;3.90;;;14.20;99.90;;;;;;4974605;28;20029;-76
2021/04/02 03:10:19;;;;;;;5.13;3.78;;;14.40;99.90;;;;;;4972703;28;20311;-76
2021/04/02 03:12:48;;;;;;;5.82;5.13;;;14.50;99.90;;;;;;4973854;28;20077;-76
2021/04/02 03:15:16;;;;;;;4.15;3.72;;;14.50;99.90;;;;;;4978289;28;20061;-76
2021/04/02 03:17:43;;;;;;;3.65;3.33;;;14.50;99.90;;;;;;4975916;28;20026;-76
2021/04/02 03:20:10;;;;;;;4.80;4.25;;;14.50;99.90;;;;;;4972551;28;20393;-76
2021/04/02 03:22:36;;;;;;;5.18;3.38;;;14.50;99.90;;;;;;4963012;28;20401;-76
2021/04/02 03:25:15;;;;;;;16.95;4.15;;;14.60;99.90;;;;;;4974454;28;20039;-76
2021/04/02 03:27:42;;;;;;;5.95;3.35;;;14.60;99.90;;;;;;4961343;28;20031;-76
2021/04/02 03:30:11;;;;;;;10.25;4.55;;;14.60;99.90;;;;;;4971291;28;20113;-75
2021/04/02 03:32:40;;;;;;;5.55;4.28;;;14.60;99.90;;;;;;4970391;28;20093;-76
2021/04/02 03:35:07;;;;;;;5.55;4.30;;;14.60;99.90;;;;;;4969110;28;20081;-76
2021/04/02 03:37:36;;;;;;;9.55;4.18;;;14.50;99.90;;;;;;4970584;28;20500;-76
2021/04/02 03:40:07;;;;;;;5.65;3.88;;;14.50;99.90;;;;;;4969716;28;20023;-76
2021/04/02 03:42:35;;;;;;;6.65;4.32;;;14.50;99.90;;;;;;4966744;28;20019;-76
2021/04/02 03:45:03;;;;;;;12.77;4.50;;;14.60;99.90;;;;;;4975018;28;20023;-76
2021/04/02 03:47:29;;;;;;;7.45;4.25;;;14.60;99.90;;;;;;4955181;28;20130;-76
2021/04/02 03:49:56;;;;;;;8.18;4.50;;;14.60;99.90;;;;;;4970947;28;20031;-76
2021/04/02 03:52:30;;;;;;;8.07;3.90;;;14.70;99.90;;;;;;4969355;28;20512;-75
2021/04/02 03:54:57;;;;;;;5.25;4.47;;;14.80;99.90;;;;;;4967884;28;20106;-75
2021/04/02 03:57:25;;;;;;;15.55;5.15;;;14.90;99.90;;;;;;4970657;28;20023;-76
2021/04/02 03:59:54;;;;;;;6.80;4.25;;;14.90;99.90;;;;;;4952666;28;20081;-76
2021/04/02 04:02:20;;;;;;;9.52;4.22;;;15.00;99.90;;;;;;4958800;28;20034;-76
2021/04/02 04:04:47;;;;;;;10.20;4.05;;;15.00;99.90;;;;;;4973069;28;20026;-76
2021/04/02 04:07:14;;;;;;;5.20;4.20;;;15.00;99.90;;;;;;4974068;28;20420;-76
2021/04/02 04:09:41;;;;;;;6.15;4.18;;;14.90;99.90;;;;;;4972225;28;20510;-75
2021/04/02 04:12:10;;;;;;;6.53;4.50;;;14.70;99.90;;;;;;4972162;28;20449;-75
2021/04/02 04:14:38;;;;;;;9.85;4.47;;;14.70;99.90;;;;;;4971929;28;20034;-76
2021/04/02 04:17:05;;;;;;;7.05;4.93;;;14.50;99.90;;;;;;4974687;28;20038;-76
2021/04/02 04:19:32;;;;;;;15.63;5.47;;;14.60;99.90;;;;;;4972775;28;20046;-76
2021/04/02 04:22:00;;;;;;;7.72;5.07;;;14.50;99.90;;;;;;4973401;28;20023;-76
2021/04/02 04:24:28;;;;;;;6.13;4.47;;;14.50;99.90;;;;;;4973021;28;20442;-76
2021/04/02 04:26:56;;;;;;;8.23;4.57;;;14.60;99.90;;;;;;4966762;28;20138;-76
2021/04/02 04:29:34;;;;;;;8.77;5.18;;;14.50;99.90;;;;;;4976892;28;20019;-76
2021/04/02 04:32:01;;;;;;;16.08;5.35;;;14.50;99.90;;;;;;4976183;28;20022;-75
2021/04/02 04:34:30;;;;;;;11.93;4.63;;;14.30;99.90;;;;;;4972119;28;20027;-76
2021/04/02 04:36:57;;;;;;;10.15;4.90;;;14.30;99.90;;;;;;4973760;28;20030;-75
2021/04/02 04:39:24;;;;;;;8.23;4.82;;;14.20;99.90;;;;;;4970339;28;20114;-75
2021/04/02 04:41:53;;;;;;;7.80;5.32;;;14.20;99.90;;;;;;4972040;28;20027;-76
2021/04/02 04:44:21;;;;;;;8.85;5.82;;;14.20;99.90;;;;;;4972991;28;20023;-76
2021/04/02 04:46:47;;;;;;;7.40;4.40;;;14.10;99.90;;;;;;4973021;28;20488;-75
2021/04/02 04:49:13;;;;;;;8.73;4.82;;;14.10;99.90;;;;;;4973888;28;20022;-76
2021/04/02 04:51:41;;;;;;;21.63;5.40;;;14.20;99.90;;;;;;4948973;28;676075;-74
2021/04/02 04:54:09;;;;;;;5.47;4.18;;;14.30;99.90;;;;;;4975660;28;20027;-76
2021/04/02 04:56:38;;;;;;;8.90;5.10;;;14.30;99.90;;;;;;4974348;28;20034;-76
2021/04/02 04:59:06;;;;;;;11.32;4.28;;;14.30;99.90;;;;;;4975610;28;20023;-75
2021/04/02 05:01:39;;;;;;;11.68;4.88;;;14.30;99.90;;;;;;4964568;28;20023;-75
2021/04/02 05:04:08;;;;;;;11.10;4.93;;;14.30;99.90;;;;;;4974827;28;20038;-77
2021/04/02 05:06:35;;;;;;;7.85;5.03;;;14.30;99.90;;;;;;4974195;28;20026;-76
2021/04/02 05:09:03;;;;;;;8.70;5.60;;;14.40;99.90;;;;;;4973459;28;20018;-76
2021/04/02 05:11:31;;;;;;;7.68;4.43;;;14.40;99.90;;;;;;4975784;28;20027;-76
2021/04/02 05:13:58;;;;;;;9.07;4.95;;;14.40;99.90;;;;;;4971950;28;20546;-75
2021/04/02 05:16:24;;;;;;;7.15;6.03;;;14.40;99.90;;;;;;4970479;28;20085;-75
2021/04/02 05:18:52;;;;;;;8.98;5.35;;;14.50;99.90;;;;;;4975204;28;20033;-76
2021/04/02 05:21:18;;;;;;;9.95;5.13;;;14.50;99.90;;;;;;4970383;28;20022;-76
2021/04/02 05:23:44;;;;;;;12.77;5.63;;;14.60;99.90;;;;;;4960399;28;20030;-76
2021/04/02 05:26:13;;;;;;;11.65;6.88;;;14.60;99.90;;;;;;4958952;28;20031;-75
2021/04/02 05:28:39;;;;;;;9.82;5.50;;;14.60;99.90;;;;;;4973810;28;20034;-75
2021/04/02 05:31:06;;;;;;;8.02;5.97;;;14.60;99.90;;;;;;4972426;28;20030;-76
2021/04/02 05:33:32;;;;;;;12.13;5.65;;;14.70;99.90;;;;;;4973187;28;20059;-76
2021/04/02 05:35:58;;;;;;;6.75;5.25;;;14.80;99.90;;;;;;4972533;28;20065;-75
2021/04/02 05:38:24;;;;;;;11.85;5.75;;;14.80;99.90;;;;;;4977573;28;20026;-70
2021/04/02 05:40:50;;;;;;;15.90;7.55;;;14.80;99.90;;;;;;4967540;28;20169;-70
2021/04/02 05:43:31;;;;;;;8.82;6.45;;;14.70;99.90;;;;;;4971867;28;20058;-69
2021/04/02 05:45:58;;;;;;;11.97;6.77;;;14.60;99.90;;;;;;4973652;28;20377;-69
2021/04/02 05:48:24;;;;;;;10.32;6.22;;;14.50;99.90;;;;;;4976265;28;20027;-69
2021/04/02 05:50:53;;;;;;;16.52;7.18;;;14.40;99.90;;;;;;4969771;28;20109;-71
2021/04/02 05:53:20;;;;;;;13.27;8.40;;;14.40;99.90;;;;;;4970289;28;20086;-70
2021/04/02 05:55:46;;;;;;;12.55;7.03;;;14.30;99.90;;;;;;4971321;28;20022;-70
2021/04/02 05:58:12;;;;;;;12.88;7.72;;;14.30;99.90;;;;;;4975304;28;20031;-70
2021/04/02 06:00:39;;;;;;;13.10;7.70;;;14.40;99.90;;;;;;4971664;28;20027;-71
2021/04/02 06:03:07;;;;;;;14.15;7.57;;;14.60;99.90;;;;;;4971600;28;20015;-70
2021/04/02 06:05:33;;;;;;;13.32;7.13;;;14.70;99.90;;;;;;4970907;28;20085;-71
2021/04/02 06:07:59;;;;;;;15.90;6.50;;;14.80;99.90;;;;;;4965539;28;20038;-73
2021/04/02 06:10:26;;;;;;;14.68;8.45;;;14.80;99.90;;;;;;4965174;28;20691;-71
2021/04/02 06:12:52;;;;;;;15.02;8.25;;;14.80;99.90;;;;;;4964854;28;20138;-74
2021/04/02 06:15:22;;;;;;;16.77;7.85;;;15.00;99.90;;;;;;4965040;28;20027;-70
2021/04/02 06:18:10;;;;;;;15.05;9.13;;;15.00;99.90;;;;;;4963058;28;20026;-70
2021/04/02 06:20:39;;;;;;;18.17;8.38;;;15.20;99.90;;;;;;4972336;28;20049;-70
2021/04/02 06:23:19;;;;;;;22.48;9.88;;;15.20;99.90;;;;;;4972760;28;20038;-71
2021/04/02 06:26:04;;;;;;;16.73;8.48;;;15.30;99.90;;;;;;4962075;28;20619;-71
2021/04/02 06:28:33;;;;;;;21.52;9.55;;;15.50;99.90;;;;;;4965966;28;20077;-71
2021/04/02 06:31:00;;;;;;;16.10;8.75;;;15.60;99.90;;;;;;4970389;28;20497;-71
2021/04/02 06:33:52;;;;;;;18.10;8.45;;;15.70;99.90;;;;;;4971466;28;20118;-72
2021/04/02 06:36:28;;;;;;;14.52;9.43;;;15.80;99.90;;;;;;4963909;28;20038;-69
2021/04/02 06:39:04;;;;;;;26.27;9.23;;;15.90;99.90;;;;;;4972007;28;20086;-70
2021/04/02 06:41:33;;;;;;;16.15;9.90;;;16.00;99.90;;;;;;4954435;28;20119;-70
2021/04/02 06:44:08;;;;;;;18.23;10.23;;;16.10;99.90;;;;;;4970590;28;20033;-72
2021/04/02 06:46:37;;;;;;;23.60;10.65;;;16.20;99.90;;;;;;4973422;28;20596;-70
2021/04/02 06:49:08;;;;;;;18.55;10.20;;;16.30;99.90;;;;;;4955960;28;20035;-70
2021/04/02 06:51:38;;;;;;;20.65;9.70;;;16.40;99.90;;;;;;4970025;28;20106;-70
2021/04/02 06:54:05;;;;;;;23.80;10.82;;;16.40;99.90;;;;;;4969485;28;20035;-69
2021/04/02 06:56:32;;;;;;;19.63;10.50;;;16.40;99.90;;;;;;4972153;28;20366;-71
2021/04/02 06:58:59;;;;;;;21.75;10.80;;;16.40;99.90;;;;;;4971434;28;20061;-69
2021/04/02 07:01:35;;;;;;;20.98;10.60;;;16.60;99.90;;;;;;4968874;28;20034;-70
2021/04/02 07:04:01;;;;;;;22.30;9.60;;;16.70;99.90;;;;;;4972311;28;20484;-71
2021/04/02 07:06:28;;;;;;;20.45;12.40;;;16.80;99.90;;;;;;4954485;28;20485;-71
2021/04/02 07:08:56;;;;;;;22.20;12.10;;;16.90;99.90;;;;;;4971530;28;20037;-70
2021/04/02 07:11:23;;;;;;;20.73;11.77;;;17.00;99.90;;;;;;4970143;28;20022;-69
2021/04/02 07:13:55;;;;;;;18.10;11.50;;;17.00;99.90;;;;;;4970511;28;20041;-69
2021/04/02 07:16:22;;;;;;;33.17;12.43;;;17.10;99.90;;;;;;4956858;28;20104;-70
2021/04/02 07:18:50;;;;;;;29.98;13.77;;;17.30;99.90;;;;;;4970362;28;20034;-69
2021/04/02 07:21:19;;;;;;;24.25;11.82;;;17.30;99.90;;;;;;4969000;28;20029;-69
2021/04/02 07:23:45;;;;;;;24.17;12.43;;;17.40;99.90;;;;;;4969870;28;20027;-71
2021/04/02 07:26:12;;;;;;;27.33;12.65;;;17.50;99.90;;;;;;4964953;28;20045;-70
2021/04/02 07:28:41;;;;;;;33.55;12.63;;;17.60;99.90;;;;;;4970131;28;20457;-70
2021/04/02 07:31:08;;;;;;;25.45;13.48;;;17.80;99.90;;;;;;4972038;28;20073;-69
2021/04/02 07:33:36;;;;;;;33.95;12.43;;;17.90;99.90;;;;;;4971210;28;20103;-70
2021/04/02 07:36:04;;;;;;;18.70;9.68;;;17.90;99.90;;;;;;4971562;28;20110;-72
2021/04/02 07:38:32;;;;;;;16.58;8.73;;;17.60;99.90;;;;;;4963713;28;20030;-71
2021/04/02 07:41:06;;;;;;;18.42;7.95;;;17.30;99.90;;;;;;4974800;28;20077;-72
2021/04/02 07:43:33;;;;;;;11.07;8.02;;;17.10;99.90;;;;;;4980982;28;20469;-72
2021/04/02 07:46:12;;;;;;;17.67;8.02;;;16.90;99.90;;;;;;4975622;28;20031;-71
2021/04/02 07:48:38;;;;;;;15.15;7.50;;;16.90;99.90;;;;;;4959219;28;20042;-72
2021/04/02 07:51:04;;;;;;;17.45;8.48;;;16.90;99.90;;;;;;4973420;28;20023;-70
2021/04/02 07:53:33;;;;;;;15.90;8.98;;;17.10;99.90;;;;;;4975115;28;20563;-71
2021/04/02 07:56:03;;;;;;;21.02;8.13;;;17.30;99.90;;;;;;4974625;28;20023;-70
2021/04/02 07:58:31;;;;;;;16.98;9.07;;;17.40;99.90;;;;;;4974728;28;20019;-71
2021/04/02 08:01:00;;;;;;;16.05;8.27;;;17.50;99.90;;;;;;4973276;28;20105;-72
2021/04/02 08:03:30;;;;;;;11.90;8.70;;;17.50;99.90;;;;;;4974870;28;20432;-72
2021/04/02 08:06:05;;;;;;;12.75;8.50;;;17.70;99.90;;;;;;4970583;28;20401;-73
2021/04/02 08:08:49;;;;;;;19.25;10.38;;;17.80;99.90;;;;;;4972319;28;20035;-71
2021/04/02 08:11:27;;;;;;;36.88;11.60;;;17.70;99.90;;;;;;4971604;28;20037;-72
2021/04/02 08:13:54;;;;;;;15.38;9.50;;;17.70;99.90;;;;;;4972600;28;20448;-71
2021/04/02 08:16:32;;;;;;;21.05;9.38;;;17.80;99.90;;;;;;4964814;28;20035;-72
2021/04/02 08:19:04;;;;;;;13.57;8.63;;;17.90;99.90;;;;;;4972354;28;20022;-72
2021/04/02 08:21:33;;;;;;;19.25;7.50;;;17.90;99.90;;;;;;4972554;28;20027;-72
2021/04/02 08:23:58;;;;;;;37.05;13.07;;;18.10;99.90;;;;;;4972686;28;20030;-71
2021/04/02 08:26:32;;;;;;;33.92;11.18;;;18.10;99.90;;;;;;4974580;28;20027;-71
2021/04/02 08:28:59;;;;;;;33.47;9.20;;;18.10;99.90;;;;;;4971452;28;20454;-72
2021/04/02 08:31:26;;;;;;;23.30;9.13;;;18.10;99.90;;;;;;4970791;28;20035;-72
2021/04/02 08:33:56;;;;;;;26.42;8.10;;;18.10;99.90;;;;;;4974320;28;20035;-71
2021/04/02 08:36:23;;;;;;;13.05;8.15;;;18.10;99.90;;;;;;4973370;28;20031;-71
2021/04/02 08:38:50;;;;;;;19.55;9.80;;;18.00;99.90;;;;;;4974882;28;20480;-72
2021/04/02 08:41:21;;;;;;;19.25;8.43;;;17.80;99.90;;;;;;4972707;28;20033;-71
2021/04/02 08:43:47;;;;;;;15.13;9.45;;;17.80;99.90;;;;;;4972774;28;20033;-72
2021/04/02 08:46:17;;;;;;;10.52;8.65;;;17.70;99.90;;;;;;4973208;28;20023;-72
2021/04/02 08:48:47;;;;;;;12.80;7.88;;;17.70;99.90;;;;;;4973743;28;20092;-71
2021/04/02 08:51:22;;;;;;;14.65;8.40;;;17.70;99.90;;;;;;4971531;28;20030;-71
2021/04/02 08:53:48;;;;;;;13.10;8.20;;;17.70;99.90;;;;;;4960884;28;20066;-71
2021/04/02 08:56:19;;;;;;;23.00;9.55;;;17.70;99.90;;;;;;4973877;28;20516;-72
2021/04/02 08:58:46;;;;;;;12.50;8.27;;;17.50;99.90;;;;;;4972854;28;20739;-72
2021/04/02 09:01:15;;;;;;;15.43;7.88;;;17.50;99.90;;;;;;4971354;28;20369;-72
2021/04/02 09:03:42;;;;;;;20.52;10.20;;;17.50;99.90;;;;;;4973389;28;20507;-71
2021/04/02 09:06:09;;;;;;;23.40;11.68;;;17.50;99.90;;;;;;4974747;28;20366;-72
2021/04/02 09:08:35;;;;;;;22.88;8.55;;;17.60;99.90;;;;;;4974522;28;20030;-72
2021/04/02 09:11:04;;;;;;;21.02;7.85;;;17.60;99.90;;;;;;4973162;28;20065;-73
2021/04/02 09:13:38;;;;;;;25.38;7.35;;;17.70;99.90;;;;;;4972482;28;20027;-71
2021/04/02 09:16:15;;;;;;;20.48;6.50;;;17.70;99.90;;;;;;4973614;28;20511;-71
2021/04/02 09:18:52;;;;;;;13.90;6.78;;;17.70;99.90;;;;;;4972533;28;20037;-72
2021/04/02 09:21:19;;;;;;;25.40;7.07;;;17.70;99.90;;;;;;4973437;28;20019;-72
2021/04/02 09:23:52;;;;;;;16.05;7.47;;;17.70;99.90;;;;;;4972067;28;20054;-72
2021/04/02 09:26:18;;;;;;;13.70;7.68;;;17.70;99.90;;;;;;4972751;28;20097;-72
2021/04/02 09:28:45;;;;;;;11.63;6.95;;;17.80;99.90;;;;;;4973805;28;20126;-73
2021/04/02 09:31:26;;;;;;;15.38;9.77;;;17.90;99.90;;;;;;4972571;28;20918;-73
2021/04/02 09:34:00;;;;;;;37.92;9.90;;;18.00;99.90;;;;;;4964157;28;20033;-72
2021/04/02 09:36:28;;;;;;;21.90;8.45;;;18.00;99.90;;;;;;4968167;28;20065;-73
2021/04/02 09:39:21;;;;;;;21.02;7.47;;;18.00;99.90;;;;;;4974251;28;20022;-72
2021/04/02 09:41:56;;;;;;;23.60;8.00;;;17.90;99.90;;;;;;4962630;28;20042;-73
2021/04/02 09:44:28;;;;;;;19.20;7.65;;;17.90;99.90;;;;;;4973142;28;20022;-72
2021/04/02 09:47:08;;;;;;;14.02;7.47;;;18.00;99.90;;;;;;4971359;28;20027;-73
2021/04/02 09:49:36;;;;;;;20.42;7.18;;;18.00;99.90;;;;;;4967659;28;20030;-73
2021/04/02 09:52:03;;;;;;;15.40;6.90;;;18.10;99.90;;;;;;4971691;28;20035;-73
2021/04/02 09:54:31;;;;;;;25.58;7.53;;;18.20;99.90;;;;;;4968391;28;20062;-73
2021/04/02 09:57:03;;;;;;;12.38;6.63;;;18.30;99.90;;;;;;4972622;28;20065;-73
2021/04/02 09:59:29;;;;;;;;;;;18.30;99.90;;;;;;4953467;28;20027;-73
2021/04/02 10:01:54;;;;;;;11.43;6.47;;;18.40;99.90;;;;;;4971148;28;19914;-70
2021/04/02 10:04:20;;;;;;;13.57;7.75;;;18.40;99.90;;;;;;4971089;28;20037;-70
2021/04/02 10:06:47;;;;;;;22.08;10.98;;;18.40;99.90;;;;;;4967479;28;20034;-70
2021/04/02 10:09:13;;;;;;;14.93;6.68;;;18.40;99.90;;;;;;4972473;28;20023;-70
2021/04/02 10:11:50;;;;;;;8.98;6.18;;;18.40;99.90;;;;;;4971844;28;20122;-69
2021/04/02 10:14:18;;;;;;;12.50;6.00;;;18.40;99.90;;;;;;4971148;28;20110;-70
2021/04/02 10:16:47;;;;;;;9.80;6.50;;;18.40;99.90;;;;;;4972395;28;20027;-68
2021/04/02 10:19:16;;;;;;;15.82;7.40;;;18.40;99.90;;;;;;4971870;28;20488;-69
2021/04/02 10:21:42;;;;;;;18.48;6.88;;;18.30;99.90;;;;;;4970450;28;20038;-70
2021/04/02 10:24:08;;;;;;;7.28;5.22;;;18.40;99.90;;;;;;4971333;28;20117;-69
2021/04/02 10:26:34;;;;;;;17.27;6.43;;;18.40;99.90;;;;;;4972913;28;20613;-69
2021/04/02 10:29:01;;;;;;;14.77;6.50;;;18.30;99.90;;;;;;4973133;28;20038;-70
2021/04/02 10:31:27;;;;;;;11.07;7.40;;;18.20;99.90;;;;;;4970970;28;20086;-70
2021/04/02 10:33:54;;;;;;;13.27;8.52;;;18.40;99.90;;;;;;4972454;28;20162;-69
2021/04/02 10:36:20;;;;;;;13.55;8.23;;;18.50;99.90;;;;;;4970691;28;20029;-70
2021/04/02 10:38:47;;;;;;;14.60;7.28;;;18.70;99.90;;;;;;4970495;28;20022;-69
2021/04/02 10:41:13;;;;;;;15.10;6.68;;;18.80;99.90;;;;;;4967348;28;20034;-70
2021/04/02 10:43:39;;;;;;;15.88;8.27;;;18.90;99.90;;;;;;4972037;28;20033;-70
2021/04/02 10:46:05;;;;;;;11.07;7.15;;;19.00;99.90;;;;;;4958379;28;20398;-69
2021/04/02 10:48:31;;;;;;;15.82;7.60;;;19.30;99.90;;;;;;4971796;28;20081;-69
2021/04/02 10:50:56;;;;;;;13.57;8.05;;;19.40;99.90;;;;;;4970183;28;20513;-69
2021/04/02 10:53:24;;;;;;;15.70;6.90;;;19.60;99.90;;;;;;4970754;28;20027;-70
2021/04/02 10:55:50;;;;;;;15.70;6.68;;;19.80;99.90;;;;;;4971081;28;20030;-70
2021/04/02 10:58:15;;;;;;;14.98;6.53;;;20.10;99.90;;;;;;4970629;28;20022;-70
2021/04/02 11:00:41;;;;;;;14.70;8.27;;;20.30;99.90;;;;;;4969681;28;20377;-70
2021/04/02 11:03:07;;;;;;;14.25;7.97;;;20.40;99.90;;;;;;4970891;28;20058;-69
2021/04/02 11:05:34;;;;;;;20.65;7.80;;;20.40;99.90;;;;;;4971997;28;20522;-70
2021/04/02 11:08:01;;;;;;;15.35;7.78;;;20.30;99.90;;;;;;4972031;28;20098;-69
2021/04/02 11:10:27;;;;;;;22.25;8.02;;;20.30;99.90;;;;;;4970435;28;20023;-70
2021/04/02 11:12:54;;;;;;;18.38;7.43;;;20.10;99.90;;;;;;4970930;28;20080;-70
2021/04/02 11:15:20;;;;;;;13.73;7.90;;;19.70;99.90;;;;;;4970359;28;20034;-70
2021/04/02 11:17:47;;;;;;;15.50;8.45;;;19.50;99.90;;;;;;4968748;28;20369;-72
2021/04/02 11:20:19;;;;;;;14.25;7.72;;;19.50;99.90;;;;;;4971084;28;20081;-71
2021/04/02 11:22:45;;;;;;;17.48;7.00;;;19.40;99.90;;;;;;4977232;28;20419;-73
2021/04/02 11:25:12;;;;;;;11.63;7.50;;;19.50;99.90;;;;;;4968685;28;20101;-69
2021/04/02 11:27:38;;;;;;;14.20;8.25;;;19.40;99.90;;;;;;4968937;28;20501;-70
2021/04/02 11:30:07;;;;;;;13.75;7.20;;;19.40;99.90;;;;;;4968438;28;20031;-70
2021/04/02 11:32:32;;;;;;;24.17;8.10;;;19.20;99.90;;;;;;4959170;28;20026;-70
2021/04/02 11:34:58;;;;;;;12.95;7.80;;;18.90;99.90;;;;;;4972498;28;20031;-74
2021/04/02 11:37:24;;;;;;;12.55;8.02;;;18.60;99.90;;;;;;4969433;28;20078;-71
2021/04/02 11:39:50;;;;;;;16.48;8.48;;;18.60;99.90;;;;;;4969458;28;20035;-70
2021/04/02 11:42:16;;;;;;;12.68;7.32;;;18.50;99.90;;;;;;4970322;28;20102;-71
2021/04/02 11:44:42;;;;;;;14.75;7.95;;;18.50;99.90;;;;;;4967007;28;20042;-70
2021/04/02 11:47:08;;;;;;;11.80;8.63;;;18.50;99.90;;;;;;4967211;28;20027;-69
2021/04/02 11:49:35;;;;;;;11.48;7.78;;;18.60;99.90;;;;;;4973678;28;20023;-72
2021/04/02 11:52:01;;;;;;;8.90;7.97;;;18.40;99.90;;;;;;4967416;28;20026;-71
2021/04/02 11:54:27;;;;;;;8.98;7.95;;;18.30;99.90;;;;;;4971045;28;20023;-70
2021/04/02 11:56:52;;;;;;;9.07;7.38;;;18.20;99.90;;;;;;4968152;28;20451;-70
2021/04/02 11:59:18;;;;;;;9.95;7.82;;;18.20;99.90;;;;;;4969354;28;20425;-71
2021/04/02 12:01:44;;;;;;;12.30;7.90;;;18.10;99.90;;;;;;4969666;28;20051;-70
2021/04/02 12:04:10;;;;;;;13.52;7.63;;;18.00;99.90;;;;;;4967390;28;20033;-71
2021/04/02 12:06:38;;;;;;;12.93;7.65;;;17.90;99.90;;;;;;4969559;28;20105;-73
2021/04/02 12:09:05;;;;;;;14.57;6.95;;;17.80;99.90;;;;;;4969118;28;20049;-72
2021/04/02 12:11:31;;;;;;;12.00;8.30;;;17.80;99.90;;;;;;4970257;28;20108;-72
2021/04/02 12:13:56;;;;;;;15.07;8.60;;;17.80;99.90;;;;;;4971402;28;20031;-72
2021/04/02 12:16:22;;;;;;;14.00;8.77;;;17.90;99.90;;;;;;4970137;28;20082;-73
2021/04/02 12:18:48;;;;;;;12.95;8.80;;;18.00;99.90;;;;;;4968956;28;20354;-73
2021/04/02 12:21:14;;;;;;;12.07;8.35;;;18.00;99.90;;;;;;4968211;28;20034;-71
2021/04/02 12:23:40;;;;;;;16.42;8.90;;;18.00;99.90;;;;;;4970865;28;20500;-72
2021/04/02 12:26:06;;;;;;;11.23;8.75;;;18.00;99.90;;;;;;4973200;28;20026;-72
2021/04/02 12:28:32;;;;;;;16.30;8.85;;;18.00;99.90;;;;;;4974706;28;20022;-72
2021/04/02 12:31:01;;;;;;;18.10;9.48;;;18.00;99.90;;;;;;4970086;28;20118;-72
2021/04/02 12:33:27;;;;;;;10.93;9.05;;;18.00;99.90;;;;;;4972517;28;20062;-72
2021/04/02 12:35:53;;;;;;;17.38;9.23;;;17.90;99.90;;;;;;4973998;28;20110;-71
2021/04/02 12:38:19;;;;;;;10.18;9.18;;;17.90;99.90;;;;;;4972479;28;20578;-72
2021/04/02 12:40:44;;;;;;;17.73;10.00;;;17.90;99.90;;;;;;4982378;28;20022;-71
2021/04/02 12:43:10;;;;;;;11.45;9.30;;;18.00;99.90;;;;;;4973254;28;20374;-72
2021/04/02 12:45:36;;;;;;;14.65;9.80;;;18.20;99.90;;;;;;4973505;28;20115;-74
2021/04/02 12:48:02;;;;;;;18.33;9.38;;;18.10;99.90;;;;;;4973076;28;20074;-73